Terminal Aerodrome Forecast
Issued by NWS

Home | Current Version | Previous Version | Text Only | Print | Product List | Glossary On
Versions: 1 2 3 4 5 6 7 8 9 10 11 12 13 14 15 16 17 18 19 20
137
FTUS43 KDLH 232332
TAFHYR
TAF
KHYR 232332Z 2400/2424 01016KT P6SM VCSH BKN090
     FM240200 04007KT P6SM BKN015
     FM240600 04004KT 5SM BR BKN008
     FM241300 05006KT P6SM BKN015
     FM241700 04007KT P6SM BKN050=

USA.gov is the U.S. government's official web portal to all federal, state and local government web resources and services.